Time;durP1;ratioP1;P1;durP2;ratioP2;P2;SDS_P1;SDS_P2;PMS_P1;PMS_P2;Temp;Humidity;BMP_temperature;BMP_pressure;BME280_temperature;BME280_humidity;BME280_pressure;Samples;Min_cycle;Max_cycle;Signal;HPM_P1;HPM_P2
2021/03/28 00:00:58;;;;;;;7.75;6.72;;;;;21.50;101565.00;;;;2069140;28;20218;-45
2021/03/28 00:02:17;;;;;;;9.00;6.53;;;;;21.50;101566.00;;;;2075470;28;20709;-45
2021/03/28 00:03:30;;;;;;;7.15;6.20;;;;;21.50;101569.00;;;;2078119;28;20217;-45
2021/03/28 00:04:52;;;;;;;10.45;7.10;;;;;21.50;101576.00;;;;2070604;28;20214;-49
2021/03/28 00:05:53;;;;;;;10.00;7.18;;;;;21.50;101565.00;;;;2065291;28;20217;-45
2021/03/28 00:06:58;;;;;;;9.93;7.00;;;;;21.50;101573.00;;;;2067584;28;20771;-43
2021/03/28 00:08:15;;;;;;;10.32;7.47;;;;;21.50;101545.00;;;;2067048;28;20617;-45
2021/03/28 00:09:24;;;;;;;10.07;7.13;;;;;21.50;101579.00;;;;2062935;28;20215;-45
2021/03/28 00:10:34;;;;;;;8.02;6.50;;;;;21.50;101575.00;;;;2071378;28;20298;-44
2021/03/28 00:11:57;;;;;;;8.18;6.43;;;;;21.50;101579.00;;;;2070426;28;20987;-45
2021/03/28 00:13:16;;;;;;;7.75;6.10;;;;;21.50;101582.00;;;;2070740;28;20240;-45
2021/03/28 00:14:19;;;;;;;8.65;6.47;;;;;21.50;101584.00;;;;2071247;28;20771;-45
2021/03/28 00:15:20;;;;;;;8.63;6.50;;;;;21.50;101593.00;;;;2071430;28;20302;-45
2021/03/28 00:16:26;;;;;;;6.88;5.80;;;;;21.50;101584.00;;;;2061432;28;20644;-45
2021/03/28 00:17:36;;;;;;;8.57;6.10;;;;;21.50;101591.00;;;;2062167;28;20605;-45
2021/03/28 00:18:54;;;;;;;8.25;6.07;;;;;21.50;101581.00;;;;2062247;28;20273;-45
2021/03/28 00:19:56;;;;;;;8.45;5.90;;;;;21.50;101591.00;;;;2071602;28;20229;-45
2021/03/28 00:21:15;;;;;;;8.18;5.75;;;;;21.50;101588.00;;;;2069656;28;20222;-42
2021/03/28 00:22:18;;;;;;;7.93;5.85;;;;;21.50;101582.00;;;;2069576;28;20210;-42
2021/03/28 00:23:25;;;;;;;6.15;5.47;;;;;21.40;101584.00;;;;2069173;28;20229;-46
2021/03/28 00:24:29;;;;;;;9.73;6.75;;;;;21.40;101575.00;;;;2061457;28;20250;-45
2021/03/28 00:25:42;;;;;;;7.53;6.15;;;;;21.50;101583.00;;;;2068680;28;20222;-43
2021/03/28 00:27:09;;;;;;;7.75;6.35;;;;;21.50;101577.00;;;;2062648;28;20219;-42
2021/03/28 00:28:22;;;;;;;7.10;5.57;;;;;21.40;101568.00;;;;2070938;28;20221;-45
2021/03/28 00:29:23;;;;;;;6.22;5.32;;;;;21.40;101574.00;;;;2074343;28;20210;-45
2021/03/28 00:30:28;;;;;;;7.40;5.80;;;;;21.40;101585.00;;;;2068998;28;20262;-45
2021/03/28 00:31:33;;;;;;;7.75;5.68;;;;;21.40;101577.00;;;;2061812;28;20484;-45
2021/03/28 00:32:44;;;;;;;6.05;5.45;;;;;21.40;101585.00;;;;2069369;28;20222;-45
2021/03/28 00:33:46;;;;;;;7.95;5.30;;;;;21.40;101579.00;;;;2065973;28;20261;-45
2021/03/28 00:34:50;;;;;;;5.65;4.85;;;;;21.40;101586.00;;;;2068878;28;20313;-45
2021/03/28 00:35:59;;;;;;;7.32;5.65;;;;;21.40;101579.00;;;;2073200;28;20969;-43
2021/03/28 00:37:08;;;;;;;7.07;4.97;;;;;21.40;101580.00;;;;2072311;28;20222;-44
2021/03/28 00:38:14;;;;;;;5.95;4.97;;;;;21.40;101587.00;;;;2068052;28;20219;-45
2021/03/28 00:39:29;;;;;;;6.38;5.05;;;;;21.40;101581.00;;;;2073614;28;20685;-42
2021/03/28 00:40:30;;;;;;;5.65;4.90;;;;;21.40;101578.00;;;;2075719;28;20271;-46
2021/03/28 00:41:57;;;;;;;6.90;5.60;;;;;21.40;101569.00;;;;2065532;28;21024;-43
2021/03/28 00:43:07;;;;;;;6.72;5.30;;;;;21.40;101573.00;;;;2064459;28;20477;-45
2021/03/28 00:44:17;;;;;;;7.20;5.70;;;;;21.40;101569.00;;;;2071980;28;20216;-51
2021/03/28 00:45:27;;;;;;;4.97;4.25;;;;;21.40;101561.00;;;;2068904;28;20222;-45
2021/03/28 00:46:43;;;;;;;7.00;4.68;;;;;21.40;101565.00;;;;2062923;28;20752;-44
2021/03/28 00:47:49;;;;;;;5.68;4.75;;;;;21.40;101568.00;;;;2061163;28;20665;-45
2021/03/28 00:48:52;;;;;;;6.47;4.82;;;;;21.40;101567.00;;;;2069158;28;20226;-45
2021/03/28 00:50:22;;;;;;;5.72;4.32;;;;;21.40;101567.00;;;;2062020;28;20212;-45
2021/03/28 00:51:24;;;;;;;6.50;5.10;;;;;21.30;101568.00;;;;2070536;28;20286;-45
2021/03/28 00:52:27;;;;;;;6.57;4.85;;;;;21.30;101570.00;;;;2063606;28;20696;-45
2021/03/28 00:53:38;;;;;;;6.95;5.43;;;;;21.10;101566.00;;;;2060741;28;20211;-45
2021/03/28 00:54:49;;;;;;;5.75;4.40;;;;;21.40;101569.00;;;;2054804;28;20783;-47
2021/03/28 00:56:01;;;;;;;6.05;4.47;;;;;21.30;101568.00;;;;2065173;28;20960;-45
2021/03/28 00:57:02;;;;;;;5.47;4.45;;;;;21.40;101557.00;;;;2068279;28;20264;-45
2021/03/28 00:58:15;;;;;;;6.17;4.60;;;;;21.30;101565.00;;;;2053751;28;20693;-45
2021/03/28 00:59:23;;;;;;;5.93;4.82;;;;;21.30;101556.00;;;;2053583;28;20467;-45
2021/03/28 01:00:48;;;;;;;6.50;4.60;;;;;21.30;101555.00;;;;2059143;28;20255;-45
2021/03/28 01:02:29;;;;;;;5.07;4.20;;;;;21.30;101554.00;;;;2071952;28;20257;-45
2021/03/28 01:03:56;;;;;;;5.72;4.35;;;;;21.30;101566.00;;;;2067877;28;20582;-45
2021/03/28 01:04:57;;;;;;;6.68;4.38;;;;;21.30;101560.00;;;;2073209;28;20229;-44
2021/03/28 01:05:58;;;;;;;7.90;4.67;;;;;21.30;101547.00;;;;2076891;28;20618;-47
2021/03/28 01:07:02;;;;;;;6.27;5.00;;;;;21.30;101558.00;;;;2068696;28;20518;-46
2021/03/28 01:08:20;;;;;;;5.45;4.75;;;;;21.30;101546.00;;;;2054291;28;20448;-43
2021/03/28 01:09:58;;;;;;;6.13;4.30;;;;;21.30;101546.00;;;;2059981;28;20219;-43
2021/03/28 01:11:16;;;;;;;5.68;4.28;;;;;21.30;101540.00;;;;2071955;28;20225;-45
2021/03/28 01:12:44;;;;;;;4.45;4.05;;;;;21.30;101540.00;;;;2068298;28;20607;-47
2021/03/28 01:14:02;;;;;;;4.85;4.28;;;;;21.30;101565.00;;;;2068844;28;20217;-45
2021/03/28 01:15:41;;;;;;;4.63;3.63;;;;;21.30;101546.00;;;;2075689;28;20225;-45
2021/03/28 01:17:19;;;;;;;5.60;4.05;;;;;21.30;101547.00;;;;2074523;28;20228;-45
2021/03/28 01:18:30;;;;;;;5.97;4.25;;;;;21.20;101539.00;;;;2076429;28;20217;-44
2021/03/28 01:19:46;;;;;;;3.88;3.40;;;;;21.30;101548.00;;;;2076956;28;20214;-45
2021/03/28 01:21:30;;;;;;;6.10;4.10;;;;;21.30;101544.00;;;;2069096;28;20289;-45
2021/03/28 01:22:51;;;;;;;5.90;4.10;;;;;21.30;101536.00;;;;2073187;28;20209;-45
2021/03/28 01:24:19;;;;;;;5.75;3.95;;;;;21.30;101536.00;;;;2070522;28;20234;-44
2021/03/28 01:25:30;;;;;;;5.60;3.78;;;;;21.20;101528.00;;;;2069478;28;20309;-45
2021/03/28 01:27:08;;;;;;;4.95;3.78;;;;;21.20;101541.00;;;;2072654;28;20224;-45
2021/03/28 01:28:40;;;;;;;4.78;3.95;;;;;21.20;101530.00;;;;2057898;28;20218;-46
2021/03/28 01:30:03;;;;;;;4.25;3.50;;;;;21.20;101520.00;;;;2068941;28;20280;-45
2021/03/28 01:31:35;;;;;;;4.75;4.18;;;;;21.20;101508.00;;;;2070057;28;20312;-45
2021/03/28 01:32:38;;;;;;;4.70;3.72;;;;;21.20;101517.00;;;;2070747;28;20933;-45
2021/03/28 01:33:43;;;;;;;4.70;3.75;;;;;21.20;101517.00;;;;2053316;28;20276;-45
2021/03/28 01:34:58;;;;;;;5.20;3.97;;;;;21.20;101516.00;;;;2061407;28;20317;-45
2021/03/28 01:36:05;;;;;;;6.38;4.38;;;;;21.20;101515.00;;;;2068976;28;20657;-45
2021/03/28 01:37:27;;;;;;;6.20;4.22;;;;;21.20;101515.00;;;;2060748;28;20227;-45
2021/03/28 01:38:30;;;;;;;4.55;3.35;;;;;21.20;101512.00;;;;2070327;28;20250;-45
2021/03/28 01:41:30;;;;;;;4.38;3.20;;;;;21.20;101512.00;;;;2077499;28;20214;-44
2021/03/28 01:42:40;;;;;;;4.97;3.83;;;;;21.20;101507.00;;;;2076892;28;20214;-45
2021/03/28 01:43:59;;;;;;;4.15;3.70;;;;;21.20;101509.00;;;;2073975;28;20225;-44
2021/03/28 01:45:25;;;;;;;4.43;3.28;;;;;21.20;101508.00;;;;2067139;28;20223;-45
2021/03/28 01:46:53;;;;;;;4.32;3.30;;;;;21.20;101517.00;;;;2061637;28;20210;-45
2021/03/28 01:48:04;;;;;;;5.57;3.30;;;;;21.20;101514.00;;;;2071785;28;20218;-45
2021/03/28 01:49:29;;;;;;;3.80;3.30;;;;;21.20;101515.00;;;;2069821;28;20215;-45
2021/03/28 01:50:55;;;;;;;4.95;3.67;;;;;21.20;101509.00;;;;2076068;28;20222;-45
2021/03/28 01:52:11;;;;;;;5.45;3.67;;;;;21.20;101509.00;;;;2071022;28;20238;-44
2021/03/28 01:53:22;;;;;;;4.15;3.00;;;;;21.20;101509.00;;;;2077052;28;20391;-45
2021/03/28 01:55:03;;;;;;;4.85;3.42;;;;;21.20;101504.00;;;;2076216;28;20210;-45
2021/03/28 01:56:10;;;;;;;4.20;3.58;;;;;21.10;101508.00;;;;2058064;28;20262;-45
2021/03/28 01:57:42;;;;;;;4.82;3.67;;;;;21.10;101502.00;;;;2075040;28;20213;-45
2021/03/28 01:58:44;;;;;;;4.93;3.20;;;;;21.10;101497.00;;;;2077117;28;20216;-45
2021/03/28 02:00:08;;;;;;;3.65;2.85;;;;;21.20;101500.00;;;;2077901;28;20245;-44
2021/03/28 02:01:22;;;;;;;5.30;3.15;;;;;21.10;101500.00;;;;2075112;28;20217;-45
2021/03/28 02:02:34;;;;;;;5.00;3.40;;;;;21.10;101497.00;;;;2069971;28;20214;-44
2021/03/28 02:03:52;;;;;;;4.65;3.75;;;;;21.10;101503.00;;;;2070065;28;20226;-45
2021/03/28 02:05:15;;;;;;;5.20;3.25;;;;;21.10;101499.00;;;;2073350;28;20222;-45
2021/03/28 02:06:32;;;;;;;4.05;3.30;;;;;21.10;101507.00;;;;2070740;28;20317;-44
2021/03/28 02:08:01;;;;;;;4.72;3.50;;;;;21.10;101506.00;;;;2071229;28;20245;-45
2021/03/28 02:09:24;;;;;;;5.35;3.45;;;;;21.10;101512.00;;;;2068403;28;20219;-45
2021/03/28 02:11:02;;;;;;;3.72;3.20;;;;;21.10;101511.00;;;;2067702;28;20335;-45
2021/03/28 02:12:12;;;;;;;5.88;3.33;;;;;21.10;101507.00;;;;2072793;28;20241;-45
2021/03/28 02:13:16;;;;;;;4.07;3.10;;;;;21.10;101507.00;;;;2071167;28;21197;-45
2021/03/28 02:14:35;;;;;;;5.55;3.35;;;;;21.10;101503.00;;;;2070642;28;20281;-45
2021/03/28 02:16:06;;;;;;;3.65;3.10;;;;;21.10;101503.00;;;;2073199;28;20631;-45
2021/03/28 02:17:27;;;;;;;4.97;3.20;;;;;21.10;101497.00;;;;2077071;28;20222;-45
2021/03/28 02:18:29;;;;;;;4.10;3.08;;;;;21.10;101501.00;;;;2076219;28;20865;-44
2021/03/28 02:19:35;;;;;;;6.57;3.40;;;;;21.10;101497.00;;;;2062391;28;20332;-45
2021/03/28 02:20:56;;;;;;;5.18;3.47;;;;;21.10;101502.00;;;;2067345;28;21069;-44
2021/03/28 02:22:11;;;;;;;4.70;3.47;;;;;21.10;101498.00;;;;2071616;28;20218;-45
2021/03/28 02:23:31;;;;;;;4.07;3.15;;;;;21.10;101492.00;;;;2074162;28;20236;-45
2021/03/28 02:24:38;;;;;;;4.65;3.33;;;;;21.10;101497.00;;;;2070798;28;20256;-45
2021/03/28 02:26:05;;;;;;;3.50;2.83;;;;;21.10;101494.00;;;;2076899;28;20218;-45
2021/03/28 02:27:35;;;;;;;4.65;3.13;;;;;21.10;101499.00;;;;2073447;28;20210;-44
2021/03/28 02:28:59;;;;;;;4.45;3.10;;;;;21.10;101516.00;;;;2075744;28;20611;-45
2021/03/28 02:30:21;;;;;;;5.63;3.10;;;;;21.10;101500.00;;;;2064247;28;20320;-45
2021/03/28 02:31:45;;;;;;;4.10;3.00;;;;;20.90;101498.00;;;;2068958;28;20795;-45
2021/03/28 02:33:08;;;;;;;4.68;2.83;;;;;21.10;101511.00;;;;2075336;28;20271;-45
2021/03/28 02:34:52;;;;;;;4.15;2.90;;;;;21.10;101504.00;;;;2077317;28;20379;-46
2021/03/28 02:35:56;;;;;;;4.55;3.08;;;;;21.10;101509.00;;;;2075895;28;20218;-45
2021/03/28 02:36:59;;;;;;;5.75;2.95;;;;;21.10;101511.00;;;;2072483;28;20268;-45
2021/03/28 02:38:17;;;;;;;3.70;2.78;;;;;21.10;101513.00;;;;2070597;28;20306;-45
2021/03/28 02:39:24;;;;;;;3.95;2.50;;;;;21.10;101512.00;;;;2078345;28;20225;-45
2021/03/28 02:40:37;;;;;;;4.00;2.97;;;;;21.00;101515.00;;;;2077612;28;20210;-45
2021/03/28 02:42:18;;;;;;;3.65;2.67;;;;;21.00;101510.00;;;;2069986;28;20302;-45
2021/03/28 02:43:48;;;;;;;4.20;2.55;;;;;20.80;101510.00;;;;2076290;28;20301;-44
2021/03/28 02:45:06;;;;;;;3.97;2.80;;;;;21.00;101511.00;;;;2074078;28;20222;-45
2021/03/28 02:46:24;;;;;;;5.65;3.28;;;;;21.00;101502.00;;;;2077705;28;20327;-44
2021/03/28 02:47:49;;;;;;;4.90;3.20;;;;;21.00;101507.00;;;;2077650;28;20214;-49
2021/03/28 02:49:02;;;;;;;3.35;2.47;;;;;21.00;101509.00;;;;2078428;28;20305;-45
2021/03/28 02:50:37;;;;;;;3.90;2.78;;;;;21.00;101508.00;;;;2069683;28;20269;-45
2021/03/28 02:51:53;;;;;;;4.00;2.65;;;;;21.00;101502.00;;;;2070881;28;20214;-45
2021/03/28 02:53:08;;;;;;;4.68;2.88;;;;;21.00;101501.00;;;;2074810;28;20226;-45
2021/03/28 02:54:26;;;;;;;4.40;3.05;;;;;21.00;101501.00;;;;2075800;28;20244;-47
2021/03/28 02:56:24;;;;;;;3.63;2.55;;;;;21.00;101511.00;;;;2078282;28;20234;-45
2021/03/28 02:57:48;;;;;;;4.32;2.72;;;;;21.00;101507.00;;;;2076747;28;20218;-45
2021/03/28 02:59:12;;;;;;;6.80;3.35;;;;;21.00;101507.00;;;;2067180;28;20277;-45
2021/03/28 03:00:15;;;;;;;4.50;3.03;;;;;21.00;101507.00;;;;2072427;28;20717;-45
2021/03/28 03:01:47;;;;;;;3.53;2.55;;;;;21.00;101499.00;;;;2076702;28;20222;-44
2021/03/28 03:03:13;;;;;;;4.55;2.75;;;;;21.00;101502.00;;;;2073979;28;20248;-45
2021/03/28 03:04:31;;;;;;;4.22;2.70;;;;;21.00;101505.00;;;;2077202;28;20229;-45
2021/03/28 03:05:46;;;;;;;4.75;2.88;;;;;21.00;101510.00;;;;2073796;28;20225;-45
2021/03/28 03:06:51;;;;;;;5.18;2.67;;;;;21.00;101504.00;;;;2077630;28;20210;-44
2021/03/28 03:08:13;;;;;;;5.13;2.78;;;;;21.00;101512.00;;;;2073872;28;20878;-45
2021/03/28 03:09:40;;;;;;;4.72;2.72;;;;;21.00;101496.00;;;;2076023;28;20218;-44
2021/03/28 03:10:55;;;;;;;4.22;2.88;;;;;21.00;101511.00;;;;2076554;28;20271;-45
2021/03/28 03:12:28;;;;;;;3.83;2.70;;;;;21.00;101504.00;;;;2077533;28;20270;-45
2021/03/28 03:13:46;;;;;;;3.13;2.30;;;;;21.00;101503.00;;;;2073924;28;20327;-48
2021/03/28 03:15:04;;;;;;;3.35;2.33;;;;;21.00;101513.00;;;;2078297;28;20218;-44
2021/03/28 03:16:14;;;;;;;3.35;2.60;;;;;21.00;101519.00;;;;2078533;28;20337;-45
2021/03/28 03:17:51;;;;;;;3.15;2.42;;;;;21.00;101504.00;;;;2078743;28;20296;-45
2021/03/28 03:19:19;;;;;;;4.57;2.50;;;;;21.00;101502.00;;;;2077451;28;20364;-44
2021/03/28 03:20:21;;;;;;;4.00;2.15;;;;;20.90;101505.00;;;;2076412;28;20981;-45
2021/03/28 03:21:54;;;;;;;4.88;2.83;;;;;20.90;101502.00;;;;2077377;28;20667;-44
2021/03/28 03:23:22;;;;;;;3.92;2.00;;;;;20.90;101507.00;;;;2077893;28;20720;-45
2021/03/28 03:24:44;;;;;;;5.82;2.63;;;;;20.90;101494.00;;;;2078087;28;20301;-45
2021/03/28 03:26:22;;;;;;;3.80;2.13;;;;;21.00;101494.00;;;;2074284;28;20255;-44
2021/03/28 03:28:00;;;;;;;3.13;2.13;;;;;20.90;101504.00;;;;2064227;28;20228;-44
2021/03/28 03:29:21;;;;;;;3.70;2.50;;;;;20.90;101506.00;;;;2066982;28;20276;-45
2021/03/28 03:30:30;;;;;;;3.10;2.20;;;;;20.90;101507.00;;;;2072476;28;20233;-45
2021/03/28 03:32:21;;;;;;;3.55;2.30;;;;;20.90;101515.00;;;;2063510;28;20219;-45
2021/03/28 03:33:52;;;;;;;3.13;2.47;;;;;20.90;101513.00;;;;2066397;28;20272;-45
2021/03/28 03:34:52;;;;;;;3.38;2.10;;;;;20.90;101501.00;;;;2077666;28;20265;-45
2021/03/28 03:36:12;;;;;;;3.53;2.40;;;;;20.90;101511.00;;;;2077799;28;20218;-44
2021/03/28 03:37:45;;;;;;;2.80;2.38;;;;;20.90;101508.00;;;;2077607;28;20225;-45
2021/03/28 03:38:57;;;;;;;3.28;2.20;;;;;20.90;101509.00;;;;2073502;28;20596;-45
2021/03/28 03:40:10;;;;;;;3.67;2.50;;;;;20.90;101508.00;;;;2077862;28;20221;-45
2021/03/28 03:41:44;;;;;;;5.22;2.42;;;;;20.90;101514.00;;;;2069146;28;20217;-45
2021/03/28 03:43:15;;;;;;;4.32;2.47;;;;;20.90;101506.00;;;;2067352;28;20617;-45
2021/03/28 03:44:21;;;;;;;3.05;2.53;;;;;20.90;101508.00;;;;2076003;28;20218;-45
2021/03/28 03:45:39;;;;;;;3.38;2.50;;;;;20.90;101506.00;;;;2078084;28;20311;-45
2021/03/28 03:47:12;;;;;;;3.10;2.30;;;;;20.90;101507.00;;;;2077923;28;20218;-45
2021/03/28 03:48:20;;;;;;;3.17;2.28;;;;;20.90;101505.00;;;;2077739;28;20245;-45
2021/03/28 03:49:36;;;;;;;3.75;2.38;;;;;20.90;101510.00;;;;2069421;28;20330;-45
2021/03/28 03:50:57;;;;;;;3.85;2.20;;;;;20.90;101514.00;;;;2070250;28;20273;-45
2021/03/28 03:52:03;;;;;;;4.68;2.30;;;;;20.90;101510.00;;;;2077257;28;20321;-45
2021/03/28 03:53:19;;;;;;;3.85;2.70;;;;;20.90;101509.00;;;;2076904;28;20245;-45
2021/03/28 03:54:50;;;;;;;4.07;2.40;;;;;20.90;101499.00;;;;2069387;28;20626;-45
2021/03/28 03:55:56;;;;;;;4.82;1.98;;;;;20.90;101500.00;;;;2075034;28;20222;-44
2021/03/28 03:57:24;;;;;;;3.25;2.13;;;;;20.90;101496.00;;;;2078422;28;20630;-44
2021/03/28 03:58:38;;;;;;;2.88;1.98;;;;;20.90;101490.00;;;;2067932;28;20723;-45
2021/03/28 03:59:38;;;;;;;3.75;2.33;;;;;20.80;101495.00;;;;2058630;28;20219;-45
2021/03/28 04:00:47;;;;;;;4.70;2.40;;;;;20.80;101506.00;;;;2053672;28;20390;-45
2021/03/28 04:02:09;;;;;;;4.60;2.25;;;;;20.80;101495.00;;;;2065969;28;20233;-44
2021/03/28 04:03:15;;;;;;;3.75;2.10;;;;;20.80;101508.00;;;;2068885;28;20277;-45
2021/03/28 04:04:56;;;;;;;4.25;2.50;;;;;20.90;101498.00;;;;2069613;28;20557;-45
2021/03/28 04:06:10;;;;;;;4.13;2.63;;;;;20.90;101500.00;;;;2081094;28;20937;-45
2021/03/28 04:07:47;;;;;;;2.78;2.20;;;;;20.80;101497.00;;;;2074119;28;20324;-45
2021/03/28 04:08:59;;;;;;;2.78;1.85;;;;;20.90;101508.00;;;;2065363;28;20222;-44
2021/03/28 04:10:14;;;;;;;3.58;1.92;;;;;20.80;101499.00;;;;2069407;28;20218;-45
2021/03/28 04:11:28;;;;;;;2.70;1.85;;;;;20.80;101513.00;;;;2073883;28;20209;-45
2021/03/28 04:12:29;;;;;;;2.63;1.92;;;;;20.80;101505.00;;;;2069259;28;20219;-45
2021/03/28 04:13:47;;;;;;;2.37;1.97;;;;;20.80;101505.00;;;;2063424;28;20222;-45
2021/03/28 04:15:02;;;;;;;5.28;2.03;;;;;20.80;101503.00;;;;2080069;28;20420;-45
2021/03/28 04:16:27;;;;;;;3.67;2.13;;;;;20.80;101514.00;;;;2071754;28;20305;-45
2021/03/28 04:17:36;;;;;;;3.05;1.70;;;;;20.80;101514.00;;;;2076644;28;20664;-45
2021/03/28 04:18:59;;;;;;;4.22;1.70;;;;;20.80;101509.00;;;;2078392;28;20225;-45
2021/03/28 04:20:19;;;;;;;4.65;1.90;;;;;20.80;101515.00;;;;2077067;28;20226;-45
2021/03/28 04:21:57;;;;;;;3.65;2.33;;;;;20.80;101511.00;;;;2068538;28;20218;-45
2021/03/28 04:23:29;;;;;;;3.95;2.08;;;;;20.80;101517.00;;;;2073508;28;20579;-45
2021/03/28 04:24:45;;;;;;;4.53;2.20;;;;;20.80;101515.00;;;;2076207;28;20677;-45
2021/03/28 04:26:14;;;;;;;4.00;2.33;;;;;20.80;101511.00;;;;2073610;28;20865;-45
2021/03/28 04:27:33;;;;;;;2.40;1.65;;;;;20.80;101516.00;;;;2074861;28;20217;-45
2021/03/28 04:29:08;;;;;;;3.13;1.80;;;;;20.80;101517.00;;;;2077305;28;20218;-44
2021/03/28 04:30:34;;;;;;;4.20;2.22;;;;;20.80;101507.00;;;;2073867;28;20230;-44
2021/03/28 04:31:40;;;;;;;3.88;2.25;;;;;20.80;101508.00;;;;2077797;28;20221;-47
2021/03/28 04:32:43;;;;;;;2.78;1.80;;;;;20.80;101508.00;;;;2076351;28;20210;-45
2021/03/28 04:33:48;;;;;;;3.80;2.00;;;;;20.80;101513.00;;;;2070712;28;20221;-45
2021/03/28 04:35:14;;;;;;;3.15;1.85;;;;;20.80;101516.00;;;;2061136;28;20215;-45
2021/03/28 04:36:21;;;;;;;2.80;1.55;;;;;20.80;101512.00;;;;2063906;28;20225;-44
2021/03/28 04:37:48;;;;;;;2.50;1.80;;;;;20.80;101510.00;;;;2068607;28;20641;-44
2021/03/28 04:39:16;;;;;;;2.33;1.45;;;;;20.70;101506.00;;;;2067021;28;20627;-45
2021/03/28 04:40:30;;;;;;;3.92;2.25;;;;;20.70;101514.00;;;;2075551;28;20221;-46
2021/03/28 04:41:49;;;;;;;2.75;1.80;;;;;20.70;101510.00;;;;2077706;28;20217;-46
2021/03/28 04:43:14;;;;;;;2.33;1.40;;;;;20.70;101510.00;;;;2077303;28;20686;-44
2021/03/28 04:44:32;;;;;;;3.65;1.88;;;;;20.80;101514.00;;;;2072208;28;20218;-44
2021/03/28 04:45:51;;;;;;;2.95;1.80;;;;;20.70;101510.00;;;;2074998;28;20268;-44
2021/03/28 04:46:54;;;;;;;2.92;2.05;;;;;20.70;101502.00;;;;2068951;28;20214;-49
2021/03/28 04:48:04;;;;;;;2.95;1.80;;;;;20.70;101503.00;;;;2069013;28;20234;-45
2021/03/28 04:49:29;;;;;;;3.15;2.22;;;;;20.70;101503.00;;;;2074676;28;20237;-46
2021/03/28 04:50:54;;;;;;;3.33;1.70;;;;;20.70;101499.00;;;;2076328;28;20268;-47
2021/03/28 04:52:13;;;;;;;2.33;1.60;;;;;20.70;101499.00;;;;2071209;28;20298;-45
2021/03/28 04:53:25;;;;;;;3.03;1.60;;;;;20.70;101505.00;;;;2073261;28;20610;-44
2021/03/28 04:54:50;;;;;;;4.05;2.00;;;;;20.70;101519.00;;;;2069744;28;20301;-41
2021/03/28 04:56:15;;;;;;;3.80;1.95;;;;;20.70;101503.00;;;;2077215;28;20779;-47
2021/03/28 04:57:34;;;;;;;3.17;1.65;;;;;20.70;101505.00;;;;2077421;28;20218;-43
2021/03/28 04:59:13;;;;;;;3.80;1.90;;;;;20.70;101508.00;;;;2077844;28;20229;-47
2021/03/28 05:00:46;;;;;;;3.38;2.00;;;;;20.70;101514.00;;;;2065392;28;20691;-44
2021/03/28 05:01:59;;;;;;;4.57;1.75;;;;;20.70;101512.00;;;;2067114;28;20218;-43
2021/03/28 05:03:09;;;;;;;3.03;1.67;;;;;20.70;101518.00;;;;2077590;28;20218;-47
2021/03/28 05:04:16;;;;;;;3.45;1.92;;;;;20.70;101512.00;;;;2069008;28;20218;-44
2021/03/28 05:05:39;;;;;;;2.60;1.70;;;;;20.70;101515.00;;;;2070183;28;20219;-42
2021/03/28 05:07:06;;;;;;;2.70;1.88;;;;;20.70;101514.00;;;;2072560;28;20910;-44
2021/03/28 05:08:24;;;;;;;4.07;2.10;;;;;20.70;101516.00;;;;2067308;28;20248;-42
2021/03/28 05:09:36;;;;;;;2.25;1.58;;;;;20.60;101521.00;;;;2069180;28;20699;-42
2021/03/28 05:11:06;;;;;;;4.45;1.77;;;;;20.70;101507.00;;;;2067810;28;20246;-42
2021/03/28 05:12:25;;;;;;;2.90;1.98;;;;;20.70;101508.00;;;;2075653;28;20316;-42
2021/03/28 05:13:53;;;;;;;2.72;1.55;;;;;20.70;101516.00;;;;2075835;28;20209;-44
2021/03/28 05:15:12;;;;;;;3.00;1.88;;;;;20.70;101514.00;;;;2072774;28;20221;-43
2021/03/28 05:16:34;;;;;;;2.00;1.40;;;;;20.70;101517.00;;;;2069926;28;20291;-45
2021/03/28 05:17:45;;;;;;;3.55;1.85;;;;;20.70;101523.00;;;;2074529;28;20706;-43
2021/03/28 05:19:01;;;;;;;4.63;1.70;;;;;20.70;101516.00;;;;2076873;28;20217;-45
2021/03/28 05:20:39;;;;;;;1.63;1.40;;;;;20.60;101525.00;;;;2076635;28;20640;-44
2021/03/28 05:22:13;;;;;;;1.95;1.30;;;;;20.70;101529.00;;;;2076207;28;20225;-43
2021/03/28 05:23:47;;;;;;;3.45;1.48;;;;;20.70;101525.00;;;;2077986;28;20692;-46
2021/03/28 05:25:26;;;;;;;2.35;1.75;;;;;20.70;101527.00;;;;2072644;28;20253;-47
2021/03/28 05:27:01;;;;;;;3.05;1.65;;;;;20.60;101522.00;;;;2068405;28;20215;-42
2021/03/28 05:28:13;;;;;;;3.00;1.95;;;;;20.60;101519.00;;;;2074073;28;20221;-42
2021/03/28 05:29:23;;;;;;;3.75;1.70;;;;;20.60;101516.00;;;;2076956;28;20220;-44
2021/03/28 05:30:43;;;;;;;2.00;1.70;;;;;20.60;101516.00;;;;2069171;28;20603;-45
2021/03/28 05:32:11;;;;;;;3.63;1.92;;;;;20.60;101513.00;;;;2075416;28;20221;-46
2021/03/28 05:33:28;;;;;;;2.03;1.60;;;;;20.70;101517.00;;;;2077347;28;20217;-43
2021/03/28 05:35:06;;;;;;;3.00;1.85;;;;;20.60;101516.00;;;;2074940;28;20317;-42
2021/03/28 05:36:35;;;;;;;3.72;1.90;;;;;20.60;101517.00;;;;2077243;28;20297;-46
2021/03/28 05:37:59;;;;;;;2.05;1.77;;;;;20.60;101513.00;;;;2077552;28;20225;-42
2021/03/28 05:39:21;;;;;;;3.13;1.80;;;;;20.60;101521.00;;;;2076913;28;20225;-43
2021/03/28 05:40:32;;;;;;;6.30;1.83;;;;;20.60;101529.00;;;;2076217;28;20209;-46
2021/03/28 05:41:51;;;;;;;2.90;1.73;;;;;20.60;101514.00;;;;2077160;28;20213;-44
2021/03/28 05:43:25;;;;;;;4.32;2.17;;;;;20.60;101512.00;;;;2076284;28;20619;-44
2021/03/28 05:44:46;;;;;;;4.00;2.10;;;;;20.70;101511.00;;;;2072246;28;20237;-42
2021/03/28 05:45:53;;;;;;;2.83;1.60;;;;;20.70;101513.00;;;;2072149;28;20883;-46
2021/03/28 05:47:25;;;;;;;4.40;1.80;;;;;20.70;101517.00;;;;2051707;28;20223;-43
2021/03/28 05:48:34;;;;;;;2.65;1.50;;;;;20.70;101512.00;;;;2069735;28;20244;-47
2021/03/28 05:49:51;;;;;;;2.67;1.80;;;;;20.70;101508.00;;;;2069955;28;20265;-45
2021/03/28 05:51:00;;;;;;;3.28;1.50;;;;;20.50;101506.00;;;;2069420;28;20245;-48
2021/03/28 05:52:16;;;;;;;1.70;1.30;;;;;20.70;101511.00;;;;2070075;28;20214;-47
2021/03/28 05:53:29;;;;;;;3.67;1.65;;;;;20.80;101509.00;;;;2077350;28;20209;-42
2021/03/28 05:54:48;;;;;;;2.67;1.60;;;;;20.80;101508.00;;;;2077170;28;20556;-44
2021/03/28 05:56:00;;;;;;;6.00;3.42;;;;;20.80;101512.00;;;;2069861;28;20226;-42
2021/03/28 05:57:28;;;;;;;4.18;2.65;;;;;20.80;101506.00;;;;2068722;28;20214;-43
2021/03/28 05:58:59;;;;;;;14.25;9.48;;;;;20.90;101509.00;;;;2062087;28;20259;-44
2021/03/28 06:00:00;;;;;;;10.93;6.40;;;;;20.90;101500.00;;;;2070359;28;20687;-43
2021/03/28 06:01:20;;;;;;;10.43;6.43;;;;;20.90;101497.00;;;;2075759;28;20206;-43
2021/03/28 06:02:50;;;;;;;16.65;9.68;;;;;20.90;101499.00;;;;2068667;28;20221;-43
2021/03/28 06:04:28;;;;;;;26.45;17.23;;;;;21.00;101497.00;;;;2072980;28;20226;-46
2021/03/28 06:05:59;;;;;;;41.60;30.38;;;;;21.00;101498.00;;;;2077537;28;20279;-48
2021/03/28 06:07:31;;;;;;;17.45;11.65;;;;;20.90;101505.00;;;;2076898;28;20248;-43
2021/03/28 06:08:49;;;;;;;21.67;11.90;;;;;20.90;101505.00;;;;2073910;28;20315;-43
2021/03/28 06:10:25;;;;;;;14.23;10.05;;;;;20.90;101504.00;;;;2068851;28;20222;-43
2021/03/28 06:12:03;;;;;;;14.27;9.55;;;;;20.90;101508.00;;;;2061289;28;20215;-45
2021/03/28 06:13:37;;;;;;;16.55;10.68;;;;;20.90;101509.00;;;;2072181;28;20214;-44
2021/03/28 06:14:44;;;;;;;14.70;11.23;;;;;20.90;101517.00;;;;2070683;28;20979;-45
2021/03/28 06:16:06;;;;;;;14.68;11.00;;;;;20.90;101508.00;;;;2073319;28;20273;-42
2021/03/28 06:17:24;;;;;;;16.40;10.18;;;;;20.90;101500.00;;;;2077056;28;20217;-42
2021/03/28 06:18:59;;;;;;;13.70;9.98;;;;;20.90;101514.00;;;;2078939;28;20880;-42
2021/03/28 06:20:22;;;;;;;13.88;9.80;;;;;20.90;101508.00;;;;2073970;28;20226;-46
2021/03/28 06:21:56;;;;;;;15.93;9.25;;;;;20.90;101512.00;;;;2072941;28;20218;-43
2021/03/28 06:23:02;;;;;;;17.45;11.07;;;;;20.80;101517.00;;;;2072829;28;20218;-43
2021/03/28 06:24:15;;;;;;;16.15;13.38;;;;;20.90;101505.00;;;;2077747;28;20228;-42
2021/03/28 06:25:38;;;;;;;19.70;12.88;;;;;20.90;101511.00;;;;2077892;28;21265;-44
2021/03/28 06:26:59;;;;;;;19.80;13.30;;;;;20.90;101508.00;;;;2077607;28;20982;-45
2021/03/28 06:28:25;;;;;;;18.27;11.80;;;;;21.00;101509.00;;;;2075959;28;20214;-47
2021/03/28 06:29:32;;;;;;;16.02;12.45;;;;;21.00;101506.00;;;;2067887;28;20832;-45
2021/03/28 06:30:57;;;;;;;19.80;12.20;;;;;21.00;101506.00;;;;2075139;28;20658;-46